Time;durP1;ratioP1;P1;durP2;ratioP2;P2;SDS_P1;SDS_P2;PMS_P1;PMS_P2;Temp;Humidity;BMP_temperature;BMP_pressure;BME280_temperature;BME280_humidity;BME280_pressure;Samples;Min_cycle;Max_cycle;Signal;HPM_P1;HPM_P2
2022/05/20 00:02:52;;;;;;;;;2.75;2.75;;;;;15.16;49.96;102047.25;146605;627;46016;-70
2022/05/20 00:05:44;;;;;;;;;3.50;3.50;;;;;15.10;50.13;102041.69;146608;663;46010;-70
2022/05/20 00:08:36;;;;;;;;;6.75;4.75;;;;;15.02;50.13;102040.41;146607;607;46012;-70
2022/05/20 00:11:28;;;;;;;;;3.50;3.00;;;;;14.99;51.64;102041.13;146606;627;46021;-69
2022/05/20 00:14:21;;;;;;;;;3.50;3.50;;;;;14.94;51.32;102039.06;146605;572;46016;-70
2022/05/20 00:17:13;;;;;;;;;4.50;4.50;;;;;14.85;51.22;102042.06;146606;646;46020;-70
2022/05/20 00:20:10;;;;;;;;;5.25;3.00;;;;;14.79;51.93;102042.63;146603;596;46016;-70
2022/05/20 00:23:03;;;;;;;;;4.00;2.00;;;;;14.66;53.37;102029.72;146605;578;46020;-70
2022/05/20 00:25:55;;;;;;;;;3.50;2.75;;;;;14.53;52.57;102042.91;146604;650;46017;-70
2022/05/20 00:28:48;;;;;;;;;4.00;3.50;;;;;14.44;53.18;102040.63;146608;661;47010;-70
2022/05/20 00:31:40;;;;;;;;;4.25;3.75;;;;;14.38;53.43;102044.63;146605;683;46016;-69
2022/05/20 00:34:32;;;;;;;;;4.25;3.25;;;;;14.31;52.93;102043.37;146606;569;46021;-69
2022/05/20 00:37:24;;;;;;;;;3.25;3.25;;;;;14.25;54.20;102043.03;146606;608;46014;-69
2022/05/20 00:40:21;;;;;;;;;5.00;3.50;;;;;14.17;53.36;102047.78;146605;734;47010;-69
2022/05/20 00:43:20;;;;;;;;;4.25;4.00;;;;;14.12;53.17;102032.69;146606;606;46915;-69
2022/05/20 00:46:19;;;;;;;;;3.25;3.25;;;;;14.14;53.24;102041.50;146610;580;45020;-70
2022/05/20 00:49:18;;;;;;;;;4.00;4.00;;;;;14.15;53.25;102036.38;146606;608;46916;-70
2022/05/20 00:52:14;;;;;;;;;4.25;4.00;;;;;14.10;53.24;102030.00;146608;601;46010;-71
2022/05/20 00:55:11;;;;;;;;;4.00;4.00;;;;;14.06;52.62;102028.91;146605;567;46017;-72
2022/05/20 00:58:10;;;;;;;;;5.75;4.75;;;;;14.07;52.84;102027.19;146607;584;46020;-70
2022/05/20 01:01:05;;;;;;;;;6.00;5.00;;;;;14.09;52.83;102030.81;146604;609;46016;-69
2022/05/20 01:03:58;;;;;;;;;3.50;3.25;;;;;14.06;54.27;102023.69;146606;651;47012;-69
2022/05/20 01:06:51;;;;;;;;;5.25;4.50;;;;;14.01;53.01;102025.12;146607;572;46036;-69
2022/05/20 01:09:44;;;;;;;;;5.75;5.75;;;;;14.00;52.93;102018.12;146609;570;46021;-70
2022/05/20 01:12:36;;;;;;;;;5.50;4.50;;;;;13.99;54.48;102028.50;146607;564;46012;-69
2022/05/20 01:15:29;;;;;;;;;5.00;5.00;;;;;13.95;53.63;102016.94;146609;580;46010;-69
2022/05/20 01:18:21;;;;;;;;;7.00;5.25;;;;;13.96;53.24;102017.88;146606;628;46012;-69
2022/05/20 01:21:13;;;;;;;;;4.50;4.25;;;;;14.01;52.80;102019.03;146607;598;47010;-71
2022/05/20 01:24:07;;;;;;;;;3.25;3.25;;;;;14.04;52.49;102020.09;146607;576;46016;-70
2022/05/20 01:26:59;;;;;;;;;5.25;5.25;;;;;14.08;52.70;102018.56;146630;643;45010;-70
2022/05/20 01:29:52;;;;;;;;;7.00;6.00;;;;;14.14;53.01;102016.31;146630;563;45012;-70
2022/05/20 01:32:44;;;;;;;;;6.00;5.50;;;;;14.17;52.31;102015.59;146631;646;44021;-70
2022/05/20 01:35:48;;;;;;;;;5.75;5.75;;;;;14.16;52.26;102012.06;146627;595;45016;-70
2022/05/20 01:38:41;;;;;;;;;7.50;5.25;;;;;14.16;53.71;102017.28;146630;583;45030;-72
2022/05/20 01:41:59;;;;;;;;;5.25;5.25;;;;;14.09;52.53;102033.41;146630;581;45012;-70
2022/05/20 01:45:05;;;;;;;;;6.00;5.00;;;;;14.07;51.89;102014.16;146628;571;45020;-70
2022/05/20 01:48:11;;;;;;;;;4.50;4.50;;;;;14.11;52.85;102029.16;146628;635;45017;-70
2022/05/20 01:51:04;;;;;;;;;6.00;5.25;;;;;14.09;52.88;102030.81;146628;573;46010;-69
2022/05/20 01:54:17;;;;;;;;;6.50;5.75;;;;;14.07;52.27;102032.41;146627;581;45024;-70
2022/05/20 01:57:17;;;;;;;;;6.00;6.00;;;;;14.02;53.55;102026.94;146627;600;45020;-70
2022/05/20 02:00:36;;;;;;;;;2.50;2.50;;;;;13.11;52.26;101877.37;146629;570;45016;-69
2022/05/20 02:03:50;;;;;;;;;6.25;5.75;;;;;13.95;52.44;102022.16;146628;592;45028;-70
2022/05/20 02:06:49;;;;;;;;;8.50;6.50;;;;;13.90;54.16;102025.34;146628;581;45028;-70
2022/05/20 02:10:23;;;;;;;;;5.25;5.00;;;;;13.48;54.21;101965.53;146628;580;45020;-70
2022/05/20 02:13:19;;;;;;;;;8.50;7.50;;;;;13.63;53.90;102015.97;146627;569;45016;-70
2022/05/20 02:16:21;;;;;;;;;6.50;6.50;;;;;13.58;54.30;102017.41;146630;622;45020;-70
2022/05/20 02:19:28;;;;;;;;;6.25;5.25;;;;;13.56;54.19;102015.53;146626;611;45014;-69
2022/05/20 02:22:25;;;;;;;;;8.00;7.00;;;;;13.56;55.31;102016.41;146628;616;45020;-70
2022/05/20 02:25:23;;;;;;;;;9.50;7.50;;;;;13.59;54.37;102020.91;146619;637;46012;-70
2022/05/20 02:28:28;;;;;;;;;5.25;5.25;;;;;13.62;53.63;102029.81;146608;579;46012;-70
2022/05/20 02:31:26;;;;;;;;;5.00;5.00;;;;;13.62;55.57;102036.75;146606;579;46017;-70
2022/05/20 02:34:19;;;;;;;;;8.00;6.00;;;;;13.57;54.76;102028.62;146609;572;46020;-71
2022/05/20 02:37:32;;;;;;;;;6.25;5.50;;;;;13.58;53.53;102029.53;146606;639;46016;-70
2022/05/20 02:40:25;;;;;;;;;7.00;5.00;;;;;13.59;54.45;102036.56;146608;587;46010;-70
2022/05/20 02:43:17;;;;;;;;;7.00;6.00;;;;;13.56;54.83;102036.38;146604;705;47012;-70
2022/05/20 02:46:10;;;;;;;;;5.75;5.25;;;;;13.53;54.58;102025.75;146608;687;46020;-70
2022/05/20 02:49:01;;;;;;;;;5.75;4.75;;;;;13.53;55.27;102025.75;146604;571;46016;-70
2022/05/20 02:51:54;;;;;;;;;6.25;6.25;;;;;13.49;55.49;102039.38;146607;606;46010;-71
2022/05/20 02:54:46;;;;;;;;;6.25;5.00;;;;;13.46;55.09;102034.00;146608;577;46014;-70
2022/05/20 02:57:38;;;;;;;;;6.50;5.25;;;;;13.40;56.79;102030.25;146606;659;46020;-71
2022/05/20 03:06:54;;;;;;;;;7.00;6.00;;;;;13.16;55.93;102034.81;146604;741;46017;-73
2022/05/20 03:09:46;;;;;;;;;7.00;7.00;;;;;13.21;56.28;102036.78;146610;596;45051;-70
2022/05/20 03:12:39;;;;;;;;;12.25;9.75;;;;;13.20;57.10;102048.00;146606;616;46012;-70
2022/05/20 03:15:31;;;;;;;;;10.25;7.25;;;;;13.12;57.79;102052.75;146610;616;46011;-70
2022/05/20 03:18:23;;;;;;;;;7.25;7.00;;;;;13.06;56.43;102050.69;146605;575;46915;-70
2022/05/20 03:21:15;;;;;;;;;10.00;9.75;;;;;13.06;56.83;102053.28;146606;592;46020;-70
2022/05/20 03:24:09;;;;;;;;;9.50;8.00;;;;;11.99;58.07;101856.59;146606;641;46013;-71
2022/05/20 03:27:03;;;;;;;;;7.00;7.00;;;;;13.08;56.93;102043.87;146628;582;45020;-70
2022/05/20 03:29:55;;;;;;;;;8.00;7.50;;;;;13.06;58.30;102060.19;146630;600;45013;-70
2022/05/20 03:32:47;;;;;;;;;9.75;9.00;;;;;13.00;56.97;102046.78;146630;671;46010;-70
2022/05/20 03:35:39;;;;;;;;;10.75;10.00;;;;;12.98;56.95;102056.19;146627;629;45016;-70
2022/05/20 03:38:31;;;;;;;;;8.75;8.75;;;;;13.06;57.12;102068.00;146630;665;45021;-70
2022/05/20 03:41:24;;;;;;;;;11.00;9.25;;;;;12.06;56.69;101868.31;146628;569;45016;-71
2022/05/20 03:44:18;;;;;;;;;9.50;7.00;;;;;13.18;57.03;102069.66;146631;584;45010;-70
2022/05/20 03:47:10;;;;;;;;;12.00;10.75;;;;;13.23;57.18;102048.22;146628;710;46012;-70
2022/05/20 03:50:02;;;;;;;;;13.25;10.25;;;;;13.28;57.32;102055.53;146627;580;45020;-70
2022/05/20 03:52:54;;;;;;;;;11.50;11.00;;;;;13.28;58.13;102078.09;146628;617;45017;-70
2022/05/20 03:55:46;;;;;;;;;9.25;8.75;;;;;13.19;56.99;102054.94;146629;577;45010;-70
2022/05/20 03:58:40;;;;;;;;;11.50;10.00;;;;;13.23;56.88;102064.72;146630;575;45012;-70
2022/05/20 04:04:45;;;;;;;;;12.25;11.50;;;;;13.35;56.85;102064.63;146628;599;45031;-70
2022/05/20 04:07:38;;;;;;;;;13.00;11.00;;;;;13.41;57.87;102067.59;146629;580;45021;-70
2022/05/20 04:10:31;;;;;;;;;10.50;8.75;;;;;13.42;58.77;102066.78;146627;589;45016;-70
2022/05/20 04:13:23;;;;;;;;;10.00;9.50;;;;;13.40;57.95;102076.25;146630;622;45010;-69
2022/05/20 04:16:17;;;;;;;;;9.25;8.25;;;;;13.46;57.76;102060.06;146624;640;46017;-70
2022/05/20 04:19:08;;;;;;;;;12.25;9.00;;;;;13.61;57.18;102054.09;146629;724;45916;-70
2022/05/20 04:22:09;;;;;;;;;15.00;14.25;;;;;13.78;56.40;102057.69;146628;576;45016;-70
2022/05/20 04:25:01;;;;;;;;;11.00;11.00;;;;;13.95;57.13;102074.31;146625;571;45020;-69
2022/05/20 04:27:53;;;;;;;;;10.25;9.50;;;;;14.12;56.17;102061.38;146606;571;46014;-70
2022/05/20 04:30:45;;;;;;;;;9.25;8.00;;;;;14.29;56.06;102063.25;146609;667;46010;-70
2022/05/20 04:33:38;;;;;;;;;9.00;8.00;;;;;14.51;55.54;102068.00;146599;674;47014;-70
2022/05/20 04:36:30;;;;;;;;;9.50;9.50;;;;;14.70;55.25;102069.94;146611;594;46011;-71
2022/05/20 04:39:22;;;;;;;;;9.25;9.25;;;;;14.85;54.77;102064.69;146606;592;46016;-70
2022/05/20 04:48:58;;;;;;;;;10.00;9.50;;;;;15.48;53.41;102066.34;146606;605;46010;-70
2022/05/20 04:51:50;;;;;;;;;9.50;8.25;;;;;15.67;52.94;102066.53;146605;570;47013;-69
2022/05/20 04:54:51;;;;;;;;;11.75;10.00;;;;;15.90;52.90;102066.81;146606;657;46010;-70
2022/05/20 04:57:54;;;;;;;;;9.00;8.00;;;;;16.20;51.32;102063.94;146607;625;46014;-69
2022/05/20 05:00:46;;;;;;;;;10.75;9.00;;;;;16.40;51.53;102063.19;146607;660;46020;-70
2022/05/20 05:03:38;;;;;;;;;11.25;8.00;;;;;16.59;51.86;102065.00;146605;658;46016;-70
2022/05/20 05:06:30;;;;;;;;;8.50;7.25;;;;;16.83;51.94;102054.81;146609;570;46020;-70
2022/05/20 05:09:22;;;;;;;;;9.50;9.00;;;;;17.12;50.03;102065.75;146607;590;45017;-70
2022/05/20 05:12:16;;;;;;;;;8.75;8.75;;;;;17.37;49.82;102065.13;146605;614;47010;-70
2022/05/20 05:15:10;;;;;;;;;11.25;9.25;;;;;17.58;50.11;102066.09;146606;614;46013;-70
2022/05/20 05:18:14;;;;;;;;;8.25;8.25;;;;;17.80;48.33;102064.44;146604;652;46020;-70
2022/05/20 05:21:06;;;;;;;;;6.50;6.00;;;;;18.00;47.70;102053.06;146607;623;46017;-70
2022/05/20 05:24:01;;;;;;;;;6.50;6.50;;;;;18.14;47.79;102067.66;146604;570;47010;-70
2022/05/20 05:26:53;;;;;;;;;5.50;5.00;;;;;18.27;47.26;102074.31;146627;578;46012;-72
2022/05/20 05:29:45;;;;;;;;;5.75;5.75;;;;;18.34;48.32;102068.47;146621;597;46011;-70
2022/05/20 05:32:39;;;;;;;;;5.00;4.00;;;;;18.41;48.13;102074.88;146628;661;45016;-70
2022/05/20 05:35:34;;;;;;;;;7.00;7.00;;;;;18.55;48.09;102076.34;146629;628;45021;-70
2022/05/20 05:38:26;;;;;;;;;6.00;6.00;;;;;18.68;47.48;102056.69;146628;581;45020;-70
2022/05/20 05:41:19;;;;;;;;;10.75;8.25;;;;;18.86;47.91;102067.06;146630;578;45020;-70
2022/05/20 05:44:11;;;;;;;;;5.50;5.50;;;;;19.07;47.14;102059.12;146626;681;45917;-70
2022/05/20 05:47:03;;;;;;;;;5.00;5.00;;;;;19.18;47.23;102078.81;146625;569;45020;-70
2022/05/20 05:49:56;;;;;;;;;3.50;3.50;;;;;19.22;47.97;102087.69;146627;584;45029;-71
2022/05/20 05:52:48;;;;;;;;;5.25;4.75;;;;;19.23;48.38;102082.50;146630;579;45021;-71
2022/05/20 05:55:40;;;;;;;;;7.25;5.00;;;;;19.18;48.63;102077.91;146627;563;46012;-70
2022/05/20 05:58:34;;;;;;;;;9.75;6.00;;;;;19.14;48.64;102075.16;146629;582;46013;-70
2022/05/20 06:01:25;;;;;;;;;6.75;6.00;;;;;19.25;47.63;102069.41;146626;737;45016;-70
2022/05/20 06:04:18;;;;;;;;;4.75;4.25;;;;;19.40;47.81;102067.34;146631;604;45012;-71
2022/05/20 06:07:10;;;;;;;;;4.50;4.50;;;;;19.59;46.94;102058.38;146628;577;45016;-70
2022/05/20 06:10:02;;;;;;;;;4.25;3.75;;;;;19.74;47.02;102071.22;146629;711;45032;-70
2022/05/20 06:12:55;;;;;;;;;4.00;4.00;;;;;19.88;47.25;102062.09;146629;674;45016;-70
2022/05/20 06:15:47;;;;;;;;;7.00;6.00;;;;;20.11;46.95;102062.84;146628;671;46010;-70
2022/05/20 06:18:39;;;;;;;;;6.00;5.75;;;;;20.26;46.38;102060.72;146630;651;45012;-70
2022/05/20 06:21:31;;;;;;;;;5.00;5.00;;;;;20.32;46.04;102065.31;146631;572;45010;-69
2022/05/20 06:24:23;;;;;;;;;5.50;5.50;;;;;20.40;46.22;102062.91;146624;593;45029;-70
2022/05/20 06:27:18;;;;;;;;;7.75;6.75;;;;;20.53;46.87;102073.06;146607;626;46020;-70
2022/05/20 06:30:13;;;;;;;;;4.25;4.25;;;;;20.54;46.27;102072.19;146603;578;46012;-70
2022/05/20 06:33:06;;;;;;;;;6.75;5.50;;;;;20.55;46.46;102070.44;146606;585;46020;-70
2022/05/20 06:42:19;;;;;;;;;5.50;5.50;;;;;20.97;44.79;102076.16;146606;668;46018;-73
2022/05/20 06:45:11;;;;;;;;;6.25;4.00;;;;;20.92;45.40;102086.56;146604;571;46021;-70
2022/05/20 06:48:03;;;;;;;;;6.00;4.25;;;;;20.95;44.69;102094.56;146604;563;46016;-70
2022/05/20 06:50:56;;;;;;;;;6.75;5.75;;;;;20.10;45.17;101921.50;146607;621;46010;-71
2022/05/20 06:53:48;;;;;;;;;6.50;5.00;;;;;21.09;44.96;102091.44;146607;563;46012;-70
2022/05/20 06:56:44;;;;;;;;;6.50;5.25;;;;;21.13;45.51;102083.69;146608;595;47010;-70
2022/05/20 06:59:36;;;;;;;;;5.25;5.25;;;;;21.18;45.48;102092.62;146603;600;47014;-70
2022/05/20 07:02:28;;;;;;;;;5.50;5.50;;;;;21.26;45.64;102091.94;146605;621;46020;-70
2022/05/20 07:05:20;;;;;;;;;4.00;4.00;;;;;21.37;46.62;102093.16;146607;636;46017;-73
2022/05/20 07:08:12;;;;;;;;;6.50;5.50;;;;;20.63;45.28;101929.28;146608;577;47010;-70
2022/05/20 07:11:05;;;;;;;;;5.75;5.50;;;;;21.53;46.02;102073.41;146605;573;47012;-72
2022/05/20 07:13:59;;;;;;;;;4.75;4.25;;;;;21.52;45.52;102077.78;146607;569;46020;-71
2022/05/20 07:16:51;;;;;;;;;8.00;5.75;;;;;21.61;45.24;102090.34;146602;703;46016;-70
2022/05/20 07:19:44;;;;;;;;;7.25;6.00;;;;;21.82;45.05;102079.47;146608;592;46020;-70
2022/05/20 07:22:36;;;;;;;;;6.75;6.00;;;;;22.01;44.67;102084.37;146606;627;47013;-70
2022/05/20 07:25:28;;;;;;;;;5.00;5.00;;;;;21.82;44.66;102096.22;146610;607;46010;-70
2022/05/20 07:28:20;;;;;;;;;5.75;5.75;;;;;21.77;45.05;102092.53;146606;640;46918;-70
2022/05/20 07:31:13;;;;;;;;;6.75;4.75;;;;;20.96;45.65;101924.94;146604;671;46913;-71
2022/05/20 07:34:05;;;;;;;;;6.75;6.00;;;;;22.07;45.06;102089.81;146608;584;45017;-70
2022/05/20 07:36:57;;;;;;;;;5.75;5.00;;;;;22.31;44.47;102100.16;146607;595;46010;-70
2022/05/20 07:39:49;;;;;;;;;5.25;5.00;;;;;22.53;44.04;102084.81;146603;574;46036;-70
2022/05/20 07:42:42;;;;;;;;;5.25;5.25;;;;;22.73;43.95;102090.56;146607;640;46010;-71
2022/05/20 07:45:33;;;;;;;;;5.50;5.50;;;;;22.90;43.54;102088.31;146604;626;46016;-69
2022/05/20 07:48:26;;;;;;;;;5.00;4.50;;;;;22.87;43.47;102085.59;146606;587;46010;-71
2022/05/20 07:51:21;;;;;;;;;7.25;6.25;;;;;22.80;44.22;102074.91;146607;682;46918;-70
2022/05/20 07:54:22;;;;;;;;;5.50;5.00;;;;;22.85;44.22;102085.56;146609;583;46010;-71
2022/05/20 07:57:19;;;;;;;;;6.00;4.75;;;;;22.84;43.87;102086.44;146605;602;46014;-69
2022/05/20 08:00:14;;;;;;;;;4.00;4.00;;;;;22.92;43.97;102076.88;146610;642;46010;-70
2022/05/20 08:03:06;;;;;;;;;6.00;5.00;;;;;23.09;43.10;102090.53;146604;595;47012;-71
2022/05/20 08:06:01;;;;;;;;;4.33;4.33;;;;;23.32;43.53;102080.41;146610;570;46012;-71
2022/05/20 08:08:54;;;;;;;;;5.00;5.00;;;;;21.88;42.06;101795.34;146606;654;46012;-69
2022/05/20 08:11:46;;;;;;;;;5.25;4.00;;;;;23.57;42.54;102086.22;146606;686;46020;-71
2022/05/20 08:14:38;;;;;;;;;6.50;5.75;;;;;23.57;41.84;102091.50;146607;632;46016;-70
2022/05/20 08:17:35;;;;;;;;;2.00;2.00;;;;;23.49;42.26;102086.97;146607;667;46010;-70
2022/05/20 08:20:30;;;;;;;;;6.33;5.00;;;;;23.59;42.67;102082.72;146603;581;47014;-70
2022/05/20 08:23:22;;;;;;;;;3.75;3.75;;;;;23.82;41.18;102080.53;146609;658;46010;-70
2022/05/20 08:26:18;;;;;;;;;5.00;3.75;;;;;24.06;41.00;102080.09;146605;625;47012;-70
2022/05/20 08:29:12;;;;;;;;;6.25;2.75;;;;;24.31;40.99;102081.37;146607;575;46020;-70
2022/05/20 08:32:04;;;;;;;;;4.00;4.00;;;;;24.51;39.84;102080.84;146607;640;46033;-71
2022/05/20 08:34:56;;;;;;;;;5.25;5.25;;;;;24.64;39.47;102065.16;146606;709;46020;-71
2022/05/20 08:37:50;;;;;;;;;2.50;2.50;;;;;24.69;39.00;102064.31;146607;672;46014;-71
2022/05/20 08:40:52;;;;;;;;;5.67;4.33;;;;;24.64;40.01;102065.16;146609;613;46010;-70
2022/05/20 08:43:44;;;;;;;;;4.00;3.00;;;;;24.63;38.89;102071.31;146603;606;46012;-70
2022/05/20 08:46:36;;;;;;;;;4.00;4.00;;;;;24.70;39.46;102080.22;146607;657;46020;-70
2022/05/20 08:49:29;;;;;;;;;3.33;2.67;;;;;23.87;39.12;101921.72;146606;675;47012;-70
2022/05/20 08:52:22;;;;;;;;;4.50;4.50;;;;;24.78;38.91;102069.75;146609;691;46010;-73
2022/05/20 08:55:15;;;;;;;;;3.33;3.33;;;;;24.80;37.90;102066.25;146603;646;46016;-71
2022/05/20 08:58:08;;;;;;;;;2.67;2.67;;;;;24.78;38.53;102067.97;146607;569;46020;-71
2022/05/20 09:01:00;;;;;;;;;3.00;3.00;;;;;24.77;37.97;102066.22;146608;588;46012;-71
2022/05/20 09:03:52;;;;;;;;;4.33;4.33;;;;;24.78;37.48;102045.88;146608;638;46020;-72
2022/05/20 09:07:04;;;;;;;;;3.00;3.00;;;;;24.81;36.55;102046.81;146609;565;46012;-70
2022/05/20 09:09:59;;;;;;;;;4.33;3.67;;;;;24.88;37.97;102039.81;146607;564;46020;-71
2022/05/20 09:12:52;;;;;;;;;4.00;4.00;;;;;25.01;38.77;102043.50;146604;584;46016;-71
2022/05/20 09:15:46;;;;;;;;;2.00;2.00;;;;;25.15;35.65;102043.75;146609;584;47010;-71
2022/05/20 09:18:47;;;;;;;;;2.00;2.00;;;;;25.20;37.43;102037.59;146607;599;46012;-71
2022/05/20 09:22:02;;;;;;;;;2.33;1.33;;;;;25.21;37.18;102030.53;146607;618;46020;-71
2022/05/20 09:24:54;;;;;;;;;2.00;1.33;;;;;25.21;34.70;102027.88;146609;570;46012;-71
2022/05/20 09:27:46;;;;;;;;;1.00;1.00;;;;;25.10;31.74;102017.09;146610;564;46010;-70
2022/05/20 09:30:43;;;;;;;;;2.67;2.67;;;;;24.94;31.33;102016.00;146607;564;46016;-71
2022/05/20 09:33:39;;;;;;;;;2.33;1.67;;;;;24.94;35.95;102007.16;146611;649;46021;-70
2022/05/20 09:36:41;;;;;;;;;1.00;1.00;;;;;25.04;28.30;102006.41;146608;639;46012;-71
2022/05/20 09:39:42;;;;;;;;;2.00;2.00;;;;;25.14;29.27;101999.47;146604;594;46020;-70
2022/05/20 09:42:34;;;;;;;;;2.00;2.00;;;;;25.27;30.97;101994.34;146606;585;46012;-71
2022/05/20 09:45:27;;;;;;;;;1.00;1.00;;;;;25.43;29.60;102000.69;146608;600;46012;-71
2022/05/20 09:48:44;;;;;;;;;2.00;2.00;;;;;25.59;31.88;101993.75;146608;576;46016;-71
2022/05/20 09:51:55;;;;;;;;;1.67;1.67;;;;;25.79;34.00;101977.97;146611;611;46010;-70
2022/05/20 09:54:59;;;;;;;;;3.00;1.33;;;;;26.02;33.10;101984.41;146606;608;47015;-70
2022/05/20 09:57:51;;;;;;;;;1.33;1.33;;;;;26.26;33.33;101983.72;146607;580;47010;-70
2022/05/20 10:00:56;;;;;;;;;2.67;2.67;;;;;26.49;32.79;101981.22;146609;600;46012;-70
2022/05/20 10:03:54;;;;;;;;;2.00;2.00;;;;;26.65;32.23;101968.87;146607;708;46011;-71
2022/05/20 10:06:54;;;;;;;;;2.00;2.00;;;;;26.71;31.53;101973.34;146605;571;47014;-70
2022/05/20 10:10:00;;;;;;;;;2.00;2.00;;;;;26.76;32.61;101970.69;146606;582;46020;-70
2022/05/20 10:12:55;;;;;;;;;4.00;1.00;;;;;26.82;31.03;101962.72;146608;571;46918;-70
2022/05/20 10:15:53;;;;;;;;;0.67;0.33;;;;;26.90;31.98;101963.66;146607;583;46020;-70
2022/05/20 10:19:16;;;;;;;;;3.00;2.33;;;;;26.94;32.60;101944.12;146606;587;46918;-70
2022/05/20 10:22:39;;;;;;;;;2.00;1.00;;;;;27.01;33.16;101934.38;146609;576;46020;-70
2022/05/20 10:26:07;;;;;;;;;2.00;0.00;;;;;27.05;32.60;101934.41;146605;575;46017;-72
2022/05/20 10:33:09;;;;;;;;;1.00;1.00;;;;;25.81;25.82;101806.22;146604;639;46017;-70
2022/05/20 10:36:23;;;;;;;;;1.00;1.00;;;;;26.31;27.67;101935.84;146609;678;47010;-71
2022/05/20 10:39:56;;;;;;;;;2.00;1.00;;;;;25.60;31.03;101806.06;146606;658;46918;-70
2022/05/20 10:43:18;;;;;;;;;1.00;1.00;;;;;26.33;30.00;101912.84;146606;613;46020;-71
2022/05/20 10:50:12;;;;;;;;;1.00;1.00;;;;;26.23;30.70;101938.50;146610;606;45021;-69
2022/05/20 10:53:50;;;;;;;;;3.33;3.33;;;;;24.92;35.07;101703.78;146606;591;46016;-71
2022/05/20 10:57:46;;;;;;;;;2.00;2.00;;;;;26.28;34.58;101914.56;146607;569;46021;-70
2022/05/20 11:00:55;;;;;;;;;1.00;1.00;;;;;26.09;35.20;101920.66;146606;668;46014;-70
2022/05/20 11:04:13;;;;;;;;;2.00;2.00;;;;;25.92;34.42;101923.19;146607;709;47010;-70
2022/05/20 11:07:32;;;;;;;;;2.00;2.00;;;;;25.84;35.14;101924.94;146608;574;46018;-71
2022/05/20 11:11:00;;;;;;;;;2.00;2.00;;;;;25.77;33.79;101916.00;146606;603;46021;-73
2022/05/20 11:14:18;;;;;;;;;2.00;2.00;;;;;25.69;35.00;101923.88;146606;566;46016;-71
2022/05/20 11:17:51;;;;;;;;;3.00;1.33;;;;;25.39;34.94;101863.47;146607;600;46011;-72
2022/05/20 11:21:20;;;;;;;;;1.00;1.00;;;;;25.63;34.50;101917.66;146607;639;46014;-72
2022/05/20 11:24:41;;;;;;;;;2.00;2.00;;;;;25.56;34.14;101908.75;146606;599;46020;-72
2022/05/20 11:28:02;;;;;;;;;1.33;1.00;;;;;25.51;35.64;101902.50;146632;626;46916;-71
2022/05/20 11:31:51;;;;;;;;;3.33;2.00;;;;;25.01;34.76;101815.31;146637;592;45010;-71
2022/05/20 11:35:04;;;;;;;;;2.33;2.33;;;;;25.46;33.30;101883.88;146634;590;45918;-72
2022/05/20 11:38:40;;;;;;;;;2.00;1.00;;;;;23.86;31.84;101602.97;146632;618;45025;-72
2022/05/20 11:41:59;;;;;;;;;1.67;1.67;;;;;25.58;32.83;101881.31;146637;613;45012;-70
2022/05/20 11:45:42;;;;;;;;;1.33;1.33;;;;;25.74;33.39;101873.47;146637;569;45010;-71
2022/05/20 11:49:04;;;;;;;;;3.33;3.33;;;;;25.85;32.88;101877.09;146635;569;45919;-72
2022/05/20 11:52:44;;;;;;;;;3.00;2.00;;;;;25.89;33.73;101878.00;146632;613;45020;-71
2022/05/20 11:56:07;;;;;;;;;1.00;1.00;;;;;25.13;33.71;101757.06;146631;580;45017;-72
2022/05/20 11:59:24;;;;;;;;;2.33;1.33;;;;;25.93;34.07;101875.38;146633;594;45020;-71
2022/05/20 12:02:18;;;;;;;;;3.00;2.00;;;;;25.85;32.33;101871.78;146632;569;46916;-72
2022/05/20 12:05:15;;;;;;;;;3.33;1.33;;;;;25.76;33.65;101872.59;146637;563;46010;-72
2022/05/20 12:08:07;;;;;;;;;1.00;1.00;;;;;25.66;33.71;101861.88;146632;588;45016;-71
2022/05/20 12:10:59;;;;;;;;;3.33;3.33;;;;;25.65;33.81;101868.97;146635;659;45010;-72
2022/05/20 12:14:19;;;;;;;;;2.00;2.00;;;;;25.53;34.23;101863.56;146635;614;45016;-71
2022/05/20 12:17:11;;;;;;;;;3.00;2.00;;;;;25.41;32.55;101858.16;146636;572;45021;-72
2022/05/20 12:26:58;;;;;;;;;2.00;2.00;;;;;25.38;32.81;101853.72;146607;582;46016;-71
2022/05/20 12:30:03;;;;;;;;;3.67;2.67;;;;;25.40;34.26;101843.13;146610;589;46010;-72
2022/05/20 12:32:56;;;;;;;;;2.00;1.67;;;;;25.41;31.80;101836.91;146608;628;46012;-72
2022/05/20 12:36:27;;;;;;;;;3.00;3.00;;;;;25.48;33.14;101838.72;146607;597;46020;-71
2022/05/20 12:39:22;;;;;;;;;2.00;1.33;;;;;25.61;32.47;101831.75;146604;642;47012;-71
2022/05/20 12:42:29;;;;;;;;;2.67;1.67;;;;;25.82;31.92;101825.72;146609;570;46010;-71
2022/05/20 12:45:21;;;;;;;;;1.00;1.00;;;;;26.03;31.31;101829.38;146606;605;47012;-71
2022/05/20 12:48:14;;;;;;;;;1.33;1.33;;;;;26.15;29.99;101809.94;146609;623;46020;-72
2022/05/20 12:51:11;;;;;;;;;2.00;1.00;;;;;26.24;31.34;101814.41;146608;579;46012;-70
2022/05/20 12:54:06;;;;;;;;;3.00;1.00;;;;;26.27;30.70;101817.09;146610;648;46011;-71
2022/05/20 12:57:11;;;;;;;;;1.00;1.00;;;;;26.26;33.62;101813.53;146606;590;46917;-72
2022/05/20 13:00:07;;;;;;;;;3.00;3.00;;;;;26.16;34.09;101811.72;146608;658;46021;-71
2022/05/20 13:03:07;;;;;;;;;2.00;2.00;;;;;25.96;34.20;101806.31;146606;634;47014;-71
2022/05/20 13:06:16;;;;;;;;;1.33;1.33;;;;;25.82;33.72;101801.81;146609;680;46010;-72
2022/05/20 13:09:09;;;;;;;;;2.33;1.33;;;;;25.71;32.45;101799.94;146607;576;47012;-71
2022/05/20 13:12:13;;;;;;;;;1.00;1.00;;;;;25.66;33.09;101800.78;146609;620;46010;-71
2022/05/20 13:15:10;;;;;;;;;4.67;2.33;;;;;25.60;32.48;101801.62;146609;619;46017;-71
2022/05/20 13:18:11;;;;;;;;;1.00;1.00;;;;;25.61;30.83;101802.53;146606;569;46021;-72
2022/05/20 13:21:16;;;;;;;;;1.33;1.00;;;;;25.65;32.70;101802.56;146607;580;47012;-73
2022/05/20 13:24:18;;;;;;;;;0.00;0.00;;;;;25.60;32.98;101796.31;146607;571;46021;-72
2022/05/20 13:27:21;;;;;;;;;2.67;2.00;;;;;25.54;32.59;101794.50;146609;598;46012;-73
2022/05/20 13:30:24;;;;;;;;;1.33;1.33;;;;;25.60;32.49;101790.13;146609;630;46020;-73
2022/05/20 13:33:17;;;;;;;;;1.33;1.33;;;;;25.63;30.85;101785.72;146606;673;46016;-72
2022/05/20 13:36:12;;;;;;;;;2.33;2.33;;;;;25.62;30.74;101794.59;146609;614;46020;-72
2022/05/20 13:39:07;;;;;;;;;1.33;1.00;;;;;25.68;30.43;101794.62;146605;609;46017;-71
2022/05/20 13:42:00;;;;;;;;;3.00;1.33;;;;;25.72;32.22;101788.44;146607;601;46020;-72
2022/05/20 13:44:52;;;;;;;;;2.00;2.00;;;;;25.67;31.05;101787.53;146608;635;46012;-72
2022/05/20 13:50:55;;;;;;;;;2.00;1.00;;;;;25.51;32.66;101785.66;146605;596;46018;-72
2022/05/20 13:53:48;;;;;;;;;2.33;1.33;;;;;25.53;31.59;101783.91;146609;570;46021;-71
2022/05/20 13:56:47;;;;;;;;;1.67;1.67;;;;;25.60;31.83;101782.16;146605;600;46016;-72
2022/05/20 13:59:41;;;;;;;;;3.67;1.33;;;;;25.54;31.48;101767.06;146608;564;46020;-71
2022/05/20 14:02:43;;;;;;;;;0.00;0.00;;;;;25.47;32.61;101759.97;146606;683;46016;-72
2022/05/20 14:05:51;;;;;;;;;1.00;1.00;;;;;25.42;32.93;101759.03;146609;575;47010;-72
2022/05/20 14:08:47;;;;;;;;;1.33;1.33;;;;;24.49;31.70;101614.19;146607;581;46013;-72
2022/05/20 14:11:48;;;;;;;;;0.33;0.33;;;;;25.33;32.12;101763.41;146608;563;46020;-73
2022/05/20 14:14:41;;;;;;;;;1.00;0.67;;;;;25.30;32.50;101763.41;146607;589;45016;-72
2022/05/20 14:17:34;;;;;;;;;1.67;1.00;;;;;25.22;31.70;101758.91;146610;597;46020;-72
2022/05/20 14:20:29;;;;;;;;;2.00;1.00;;;;;25.16;32.46;101761.50;146607;619;46917;-73
2022/05/20 14:23:23;;;;;;;;;3.33;2.33;;;;;25.06;31.18;101752.56;146609;565;46010;-71
2022/05/20 14:26:36;;;;;;;;;2.00;2.00;;;;;24.81;32.45;101716.97;146608;658;45016;-71
2022/05/20 14:29:41;;;;;;;;;1.33;1.33;;;;;25.03;33.12;101747.22;146608;617;46012;-71
2022/05/20 14:32:33;;;;;;;;;2.33;1.33;;;;;25.04;33.24;101751.66;146606;593;46012;-71